METAR Formatted Surface Weather Observation
Issued by NWS

Home | Current Version | Previous Version | Text Only | Print | Product List | Glossary On
Versions: 1 2
258
SAUS44 KBMX 140955
MTRHEY
METAR KHEY 140953Z AUTO 06006KT 10SM CLR 02/M09 A3030 RMK AO2 SLP251
T00221094 FZRANO $



USA.gov is the U.S. government's official web portal to all federal, state and local government web resources and services.